Time;durP1;ratioP1;P1;durP2;ratioP2;P2;SDS_P1;SDS_P2;PMS_P1;PMS_P2;Temp;Humidity;BMP_temperature;BMP_pressure;BME280_temperature;BME280_humidity;BME280_pressure;Samples;Min_cycle;Max_cycle;Signal;HPM_P1;HPM_P2
2022/10/04 05:45:32;;;;;;;1.27;0.70;;;;;;;23.59;48.28;101810.88;5089340;28;20097;-50
2022/10/04 05:48:01;;;;;;;2.40;0.98;;;;;;;24.36;46.17;101809.44;5090023;28;20051;-52
2022/10/04 05:50:48;;;;;;;4.93;0.88;;;;;;;24.71;44.94;101789.31;5081062;28;20020;-48
2022/10/04 05:53:22;;;;;;;2.60;0.70;;;;;;;25.14;43.85;101809.50;5025413;28;20030;-50
2022/10/04 05:56:29;;;;;;;1.38;0.70;;;;;;;25.34;43.46;101815.16;5028453;28;20368;-52
2022/10/04 05:59:16;;;;;;;4.30;0.88;;;;;;;25.49;42.90;101811.97;5027239;28;20022;-50
2022/10/04 06:01:54;;;;;;;1.05;0.52;;;;;;;25.50;42.71;101805.88;5018633;28;20052;-49
2022/10/04 06:04:44;;;;;;;1.10;0.60;;;;;;;25.55;42.54;101808.59;5026593;28;20074;-51
2022/10/04 06:07:15;;;;;;;2.72;0.90;;;;;;;25.61;42.24;101806.09;5020720;28;20044;-51
2022/10/04 06:10:24;;;;;;;1.95;0.70;;;;;;;25.61;42.31;101800.81;5027046;28;20435;-50
2022/10/04 06:12:56;;;;;;;2.10;1.17;;;;;;;25.62;42.11;101808.75;5021805;28;20177;-48
2022/10/04 06:15:35;;;;;;;5.75;2.25;;;;;;;25.67;42.15;101815.81;5047246;28;20044;-49
2022/10/04 06:18:26;;;;;;;3.08;1.55;;;;;;;25.68;42.00;101813.25;5031335;28;20041;-49
2022/10/04 06:21:03;;;;;;;11.68;3.25;;;;;;;25.67;42.27;101816.72;5023056;28;20042;-47
2022/10/04 06:23:34;;;;;;;6.90;3.50;;;;;;;25.66;42.27;101803.53;5031879;28;20079;-48
2022/10/04 06:26:09;;;;;;;9.57;2.67;;;;;;;25.72;41.98;101803.66;5030613;28;20025;-48
2022/10/04 06:28:43;;;;;;;9.02;3.60;;;;;;;25.69;42.33;101809.75;5031608;28;20448;-48
2022/10/04 06:31:49;;;;;;;7.30;3.13;;;;;;;25.71;42.16;101815.94;5030528;28;20040;-49
2022/10/04 06:34:32;;;;;;;10.48;4.25;;;;;;;25.77;41.93;101825.66;5046800;28;20040;-50
2022/10/04 06:37:21;;;;;;;8.98;3.22;;;;;;;25.80;42.07;101812.59;5046222;28;20553;-47
2022/10/04 06:40:00;;;;;;;12.70;3.67;;;;;;;25.83;41.99;101814.38;5040753;28;20430;-49
2022/10/04 06:42:42;;;;;;;7.50;3.35;;;;;;;25.74;41.99;101810.72;5046678;28;20029;-48
2022/10/04 06:45:29;;;;;;;11.90;3.88;;;;;;;25.74;42.02;101804.59;5047769;28;20017;-50
2022/10/04 06:48:11;;;;;;;7.28;3.58;;;;;;;25.73;42.21;101798.41;5048742;28;20032;-50
2022/10/04 06:50:50;;;;;;;7.35;3.20;;;;;;;25.70;42.00;101777.38;5048584;28;20040;-53
2022/10/04 06:53:26;;;;;;;8.02;3.35;;;;;;;25.76;41.87;101784.47;5035300;28;20021;-53
2022/10/04 06:56:07;;;;;;;7.10;3.40;;;;;;;25.70;42.08;101784.34;5035475;28;20630;-52
2022/10/04 06:58:46;;;;;;;8.30;2.83;;;;;;;25.74;41.99;101786.19;5034175;28;20026;-49
2022/10/04 07:01:21;;;;;;;5.82;2.67;;;;;;;25.74;41.96;101794.06;5035283;28;20041;-51
2022/10/04 07:03:53;;;;;;;5.80;2.90;;;;;;;25.77;41.74;101799.38;5034305;28;20032;-51
2022/10/04 07:06:38;;;;;;;6.13;2.72;;;;;;;25.80;41.75;101802.09;5035642;28;20120;-53
2022/10/04 07:09:14;;;;;;;7.40;2.65;;;;;;;25.78;41.80;101804.66;5034031;28;20075;-48
2022/10/04 07:11:50;;;;;;;7.72;2.45;;;;;;;25.82;41.78;101794.22;5033963;28;20399;-51
2022/10/04 07:14:29;;;;;;;4.60;2.40;;;;;;;25.76;41.65;101797.63;5035101;28;20021;-47
2022/10/04 07:17:04;;;;;;;6.63;2.45;;;;;;;25.74;41.66;101791.44;5035238;28;20049;-48
2022/10/04 07:19:54;;;;;;;5.75;2.63;;;;;;;25.71;41.92;101800.16;5033606;28;20022;-49
2022/10/04 07:22:32;;;;;;;4.07;2.45;;;;;;;25.72;41.87;101803.66;5034934;28;20025;-47
2022/10/04 07:25:26;;;;;;;6.38;1.98;;;;;;;25.81;41.67;101811.75;5035052;28;20489;-50
2022/10/04 07:30:53;;;;;;;4.32;1.83;;;;;;;25.81;41.88;101806.47;5034298;28;20552;-49
2022/10/04 07:33:23;;;;;;;5.22;2.38;;;;;;;25.73;41.58;101800.19;5034589;28;20037;-48
2022/10/04 07:35:56;;;;;;;4.07;1.80;;;;;;;25.75;41.72;101803.72;5034602;28;20375;-49
2022/10/04 07:38:27;;;;;;;3.08;1.63;;;;;;;25.82;41.70;101815.25;5033163;28;20048;-48
2022/10/04 07:41:20;;;;;;;3.25;1.83;;;;;;;25.83;41.45;101817.88;5033006;28;20049;-47
2022/10/04 07:43:54;;;;;;;7.18;2.22;;;;;;;25.85;41.57;101825.81;5033898;28;20034;-47
2022/10/04 07:46:42;;;;;;;4.78;1.67;;;;;;;25.78;41.90;101816.94;5033349;28;20064;-54
2022/10/04 07:49:16;;;;;;;3.00;1.63;;;;;;;25.82;41.76;101820.50;5033859;28;20325;-48
2022/10/04 07:51:53;;;;;;;3.58;1.85;;;;;;;25.86;41.51;101827.59;5034450;28;20061;-52
2022/10/04 07:54:44;;;;;;;3.40;1.38;;;;;;;25.84;41.56;101824.91;5034233;28;20463;-50
2022/10/04 07:57:16;;;;;;;3.15;1.55;;;;;;;25.84;41.47;101822.28;5032688;28;20040;-50
2022/10/04 08:00:05;;;;;;;2.88;1.42;;;;;;;25.81;41.48;101827.50;5034089;28;20436;-49
2022/10/04 08:02:44;;;;;;;3.08;1.50;;;;;;;25.81;41.74;101823.97;5032738;28;20040;-57
2022/10/04 08:05:24;;;;;;;4.53;1.35;;;;;;;25.85;41.37;101826.69;5033539;28;20088;-49
2022/10/04 08:08:15;;;;;;;2.92;1.27;;;;;;;25.90;41.42;101834.66;5032817;28;20083;-48
2022/10/04 08:11:14;;;;;;;1.95;1.08;;;;;;;25.87;41.50;101830.22;5024611;28;20138;-50
2022/10/04 08:14:00;;;;;;;3.75;1.48;;;;;;;25.86;41.52;101824.97;5031038;28;20603;-50
2022/10/04 08:17:05;;;;;;;1.98;1.02;;;;;;;25.83;41.40;101827.53;5032602;28;20084;-47
2022/10/04 08:19:37;;;;;;;3.30;1.67;;;;;;;25.85;41.68;101841.59;5021937;28;20033;-47
2022/10/04 08:22:27;;;;;;;1.90;1.00;;;;;;;25.83;41.36;101833.66;5032163;28;20398;-47
2022/10/04 08:25:18;;;;;;;2.47;1.00;;;;;;;25.91;41.37;101842.59;5027700;28;20119;-48
2022/10/04 08:30:52;;;;;;;2.50;1.30;;;;;;;25.91;41.34;101842.59;5023251;28;20052;-48
2022/10/04 08:33:36;;;;;;;3.83;1.50;;;;;;;25.88;41.51;101834.63;5031183;28;20026;-48
2022/10/04 08:36:09;;;;;;;7.45;1.30;;;;;;;25.90;41.42;101846.06;5028429;28;20032;-48
2022/10/04 08:38:57;;;;;;;6.93;2.03;;;;;;;25.87;41.55;101840.75;5029516;28;20032;-51
2022/10/04 08:41:36;;;;;;;6.15;1.35;;;;;;;25.86;41.33;101846.84;5028415;28;20132;-49
2022/10/04 08:44:23;;;;;;;4.18;1.20;;;;;;;25.84;41.11;101843.31;5029172;28;20496;-51
2022/10/04 08:47:12;;;;;;;10.43;1.33;;;;;;;25.79;41.29;101839.72;5029716;28;20045;-52
2022/10/04 08:49:52;;;;;;;9.75;1.50;;;;;;;25.84;41.46;101847.69;5029048;28;20036;-51
2022/10/04 08:52:29;;;;;;;5.35;1.08;;;;;;;25.81;41.36;101845.91;5032157;28;20060;-51
2022/10/04 08:55:36;;;;;;;14.35;1.95;;;;;;;25.82;41.33;101847.66;5031931;28;20026;-49
2022/10/04 08:58:16;;;;;;;9.27;1.52;;;;;;;25.85;41.22;101847.72;5032871;28;20170;-50
2022/10/04 09:01:06;;;;;;;14.23;1.23;;;;;;;25.85;41.25;101849.47;5032794;28;20033;-49
2022/10/04 09:03:43;;;;;;;7.95;1.65;;;;;;;25.86;41.36;101846.84;5032575;28;20155;-51
2022/10/04 09:06:36;;;;;;;9.27;1.70;;;;;;;25.88;41.18;101841.66;5033008;28;20514;-50
2022/10/04 09:09:33;;;;;;;5.40;1.20;;;;;;;25.88;41.38;101849.53;5032302;28;20048;-48
2022/10/04 09:12:21;;;;;;;6.85;1.38;;;;;;;25.91;41.17;101842.59;5032304;28;20056;-51
2022/10/04 09:15:07;;;;;;;7.25;1.10;;;;;;;25.90;41.32;101856.59;5031968;28;20040;-48
2022/10/04 09:18:14;;;;;;;8.15;1.10;;;;;;;25.97;40.89;101860.22;5032726;28;20025;-51
2022/10/04 09:20:42;;;;;;;6.03;1.35;;;;;;;26.00;41.03;101856.75;5032219;28;20052;-51
2022/10/04 09:23:30;;;;;;;3.40;1.23;;;;;;;25.97;41.15;101859.34;5032332;28;20159;-52
2022/10/04 09:25:59;;;;;;;7.13;1.27;;;;;;;25.94;40.94;101852.25;5031991;28;20399;-52
2022/10/04 09:28:43;;;;;;;4.93;1.25;;;;;;;25.96;40.81;101852.31;5032383;28;20025;-49
2022/10/04 09:31:30;;;;;;;4.78;1.20;;;;;;;25.94;40.99;101861.06;5031496;28;20025;-51
2022/10/04 09:34:03;;;;;;;4.05;0.93;;;;;;;25.93;41.11;101854.00;5031510;28;20060;-51
2022/10/04 09:36:54;;;;;;;4.55;1.40;;;;;;;25.91;41.17;101849.56;5032500;28;20033;-50
2022/10/04 09:39:46;;;;;;;8.30;1.52;;;;;;;25.95;41.02;101848.78;5031665;28;20052;-51
2022/10/04 09:42:38;;;;;;;5.18;1.25;;;;;;;25.96;40.90;101839.16;5012173;28;20404;-51
2022/10/04 09:45:26;;;;;;;8.15;1.60;;;;;;;25.98;41.05;101847.97;5008883;28;20034;-50
2022/10/04 09:48:21;;;;;;;4.78;1.55;;;;;;;25.93;41.11;101856.66;5012067;28;20034;-51
2022/10/04 09:50:58;;;;;;;4.18;1.10;;;;;;;25.97;40.94;101851.44;5012348;28;20550;-48
2022/10/04 09:53:44;;;;;;;5.13;0.85;;;;;;;25.95;41.11;101854.03;5012649;28;20042;-51
2022/10/04 09:56:50;;;;;;;5.70;1.15;;;;;;;25.93;41.11;101851.38;5012651;28;20038;-50
2022/10/04 09:59:45;;;;;;;6.68;1.00;;;;;;;25.98;40.92;101858.47;5012339;28;20034;-51
2022/10/04 10:02:51;;;;;;;7.05;0.90;;;;;;;25.97;41.22;101864.59;5011237;28;20096;-49
2022/10/04 10:05:45;;;;;;;7.00;0.93;;;;;;;25.97;40.81;101859.34;5011596;28;20044;-49
2022/10/04 10:08:26;;;;;;;6.07;0.93;;;;;;;25.99;40.94;101862.84;5008912;28;20034;-53
2022/10/04 10:14:12;;;;;;;5.25;1.00;;;;;;;26.02;40.76;101857.66;5015334;28;20042;-50
2022/10/04 10:17:04;;;;;;;6.15;1.10;;;;;;;26.05;40.88;101860.34;5012597;28;20041;-51
2022/10/04 10:19:32;;;;;;;5.93;1.00;;;;;;;26.05;40.95;101856.00;5011918;28;20384;-50
2022/10/04 10:22:30;;;;;;;10.48;1.27;;;;;;;26.02;40.96;101860.28;5012383;28;20018;-49
2022/10/04 10:25:24;;;;;;;2.85;1.00;;;;;;;25.99;41.09;101866.38;5011959;28;20084;-51
2022/10/04 10:28:19;;;;;;;3.20;1.17;;;;;;;25.99;41.20;101866.38;5014100;28;20030;-50
2022/10/04 10:31:07;;;;;;;7.37;1.50;;;;;;;26.03;40.86;101864.69;5015501;28;20129;-52
2022/10/04 10:33:54;;;;;;;14.65;1.60;;;;;;;26.01;41.04;101871.66;5015408;28;20415;-50
2022/10/04 10:36:43;;;;;;;15.10;1.58;;;;;;;26.00;41.23;101868.16;5015195;28;20084;-49
2022/10/04 10:39:38;;;;;;;18.17;2.47;;;;;;;26.00;41.10;101869.88;5011453;28;20113;-52
2022/10/04 10:42:14;;;;;;;13.48;1.30;;;;;;;26.03;41.02;101876.13;5031783;28;20095;-48
2022/10/04 10:45:21;;;;;;;16.08;2.10;;;;;;;26.06;41.03;101878.78;5034696;28;20030;-53
2022/10/04 10:48:05;;;;;;;11.45;1.50;;;;;;;26.07;40.94;101877.03;5031802;28;20063;-51
2022/10/04 10:51:11;;;;;;;13.70;2.10;;;;;;;26.02;41.00;101871.72;5035625;28;20028;-52
2022/10/04 10:54:06;;;;;;;15.27;1.45;;;;;;;26.04;41.20;101863.84;5034892;28;20025;-50
2022/10/04 10:56:47;;;;;;;12.80;1.67;;;;;;;26.07;40.92;101866.53;5034819;28;20061;-52
2022/10/04 10:59:54;;;;;;;16.42;1.67;;;;;;;26.12;40.87;101878.06;5034145;28;20172;-50
2022/10/04 11:02:42;;;;;;;12.80;2.08;;;;;;;26.08;40.86;101865.66;5031178;28;20060;-54
2022/10/04 11:05:35;;;;;;;6.63;1.55;;;;;;;26.06;40.98;101873.50;5034256;28;20479;-53
2022/10/04 11:08:42;;;;;;;10.27;2.03;;;;;;;26.05;40.97;101874.41;5034775;28;20052;-50
2022/10/04 11:11:34;;;;;;;7.07;1.73;;;;;;;26.07;40.91;101867.41;5031174;28;20609;-49
2022/10/04 11:14:34;;;;;;;7.93;1.38;;;;;;;26.02;41.05;101865.53;5031411;28;20037;-52
2022/10/04 11:17:25;;;;;;;5.68;0.80;;;;;;;26.09;41.06;101870.06;5015618;28;20041;-49
2022/10/04 11:20:26;;;;;;;11.75;1.73;;;;;;;26.11;41.08;101863.13;5033964;28;20116;-51
2022/10/04 11:23:14;;;;;;;12.30;1.35;;;;;;;26.13;40.93;101864.06;5017310;28;20026;-50
2022/10/04 11:25:56;;;;;;;8.73;1.15;;;;;;;26.11;41.05;101862.19;5034088;28;20048;-49
2022/10/04 11:28:50;;;;;;;5.20;1.00;;;;;;;26.08;40.87;101856.03;5033413;28;20393;-50
2022/10/04 11:31:56;;;;;;;10.02;1.10;;;;;;;26.08;41.12;101855.16;5034119;28;20038;-50
2022/10/04 11:34:44;;;;;;;9.82;1.20;;;;;;;26.15;41.04;101854.41;5030565;28;20510;-49
2022/10/04 11:37:31;;;;;;;7.03;1.17;;;;;;;26.14;40.93;101850.06;5033958;28;20053;-50
2022/10/04 11:40:22;;;;;;;10.48;1.98;;;;;;;26.18;41.04;101843.97;5028839;28;20041;-51
2022/10/04 11:43:05;;;;;;;7.65;1.02;;;;;;;26.16;40.72;101852.69;5034438;28;20041;-48
2022/10/04 11:45:54;;;;;;;7.97;1.33;;;;;;;26.17;41.13;101844.81;5033141;28;20086;-53
2022/10/04 11:48:46;;;;;;;6.88;1.48;;;;;;;26.17;41.03;101851.84;5033463;28;20461;-51
2022/10/04 11:51:47;;;;;;;4.80;1.40;;;;;;;26.20;40.80;101855.41;5033950;28;20037;-48
2022/10/04 11:54:40;;;;;;;3.97;1.08;;;;;;;26.21;41.06;101858.94;5028629;28;20060;-53
2022/10/04 11:57:31;;;;;;;4.55;1.10;;;;;;;26.24;41.02;101848.44;5031434;28;20113;-51
2022/10/04 12:00:13;;;;;;;6.88;0.90;;;;;;;26.23;41.05;101844.94;5031470;28;20127;-47
2022/10/04 12:02:50;;;;;;;7.22;1.05;;;;;;;26.21;41.13;101843.16;5032056;28;20155;-53
2022/10/04 12:05:47;;;;;;;4.40;1.00;;;;;;;26.21;41.11;101846.66;5030108;28;20530;-50
2022/10/04 12:08:46;;;;;;;3.47;0.80;;;;;;;26.25;41.08;101847.59;5024425;28;20394;-51
2022/10/04 12:14:46;;;;;;;4.97;0.80;;;;;;;26.28;40.88;101837.13;5030692;28;20091;-48
2022/10/04 12:17:51;;;;;;;6.25;0.93;;;;;;;26.28;41.15;101834.50;5028461;28;20034;-51
2022/10/04 12:20:57;;;;;;;3.60;0.93;;;;;;;26.28;41.14;101823.97;5029381;28;20043;-55
2022/10/04 12:23:45;;;;;;;3.00;0.70;;;;;;;26.31;41.23;101815.25;5023451;28;20045;-53
2022/10/04 12:26:33;;;;;;;2.40;0.70;;;;;;;26.31;41.18;101812.63;5027361;28;20029;-55
2022/10/04 12:29:23;;;;;;;1.67;0.60;;;;;;;26.26;41.29;101811.66;5030880;28;20049;-52
2022/10/04 12:32:09;;;;;;;2.50;0.73;;;;;;;26.21;41.11;101809.84;5031200;28;20029;-50
2022/10/04 12:34:46;;;;;;;3.25;0.70;;;;;;;26.26;41.19;101803.78;5028427;28;20075;-48
2022/10/04 12:37:37;;;;;;;1.58;0.60;;;;;;;26.27;41.35;101803.78;5031901;28;20060;-48
2022/10/04 12:40:35;;;;;;;4.13;1.00;;;;;;;26.32;41.27;101811.75;5028338;28;20562;-49
2022/10/04 12:46:15;;;;;;;3.42;0.57;;;;;;;26.32;41.03;101790.69;5025526;28;20869;-51
2022/10/04 12:48:47;;;;;;;2.97;0.70;;;;;;;26.32;41.19;101795.97;5030198;28;20107;-51
2022/10/04 12:51:35;;;;;;;2.72;0.88;;;;;;;26.38;41.31;101806.59;5031139;28;20029;-49
2022/10/04 12:54:42;;;;;;;1.85;0.68;;;;;;;26.38;40.99;101803.97;5030030;28;20039;-52
2022/10/04 12:57:29;;;;;;;1.05;0.50;;;;;;;26.38;41.31;101796.06;5009929;28;20091;-55
2022/10/04 13:00:22;;;;;;;1.50;0.40;;;;;;;26.36;41.23;101793.44;5029879;28;20088;-51
2022/10/04 13:03:21;;;;;;;1.10;0.40;;;;;;;26.35;41.20;101799.56;5030525;28;20453;-50
2022/10/04 13:06:09;;;;;;;2.72;0.35;;;;;;;26.35;41.52;101793.38;5030357;28;20495;-52
2022/10/04 13:09:02;;;;;;;3.63;0.80;;;;;;;26.35;41.41;101793.38;5027750;28;20037;-50
2022/10/04 13:11:51;;;;;;;2.28;0.68;;;;;;;26.44;41.18;101805.81;5030192;28;20037;-53
2022/10/04 13:14:40;;;;;;;1.90;0.50;;;;;;;26.41;41.13;101798.75;5026659;28;20079;-52
2022/10/04 13:17:31;;;;;;;2.50;0.85;;;;;;;26.48;41.17;101805.00;5030808;28;20580;-54
2022/10/04 13:20:18;;;;;;;3.13;0.40;;;;;;;26.48;41.37;101803.22;5028849;28;20048;-51
2022/10/04 13:22:58;;;;;;;0.93;0.28;;;;;;;26.44;41.06;101790.00;5028267;28;20095;-49
2022/10/04 13:25:50;;;;;;;4.20;0.70;;;;;;;26.49;41.07;101799.75;5030074;28;20458;-54
2022/10/04 13:28:29;;;;;;;4.35;0.70;;;;;;;26.48;41.22;101789.22;5028208;28;20064;-52
2022/10/04 13:31:00;;;;;;;1.40;0.47;;;;;;;26.46;41.30;101790.94;5031153;28;20364;-52
2022/10/04 13:33:51;;;;;;;1.55;0.60;;;;;;;26.47;41.10;101780.44;5021787;28;20017;-56
2022/10/04 13:36:40;;;;;;;2.55;0.35;;;;;;;26.51;40.94;101773.47;5023110;28;20402;-55
2022/10/04 13:39:40;;;;;;;1.02;0.40;;;;;;;26.56;40.86;101777.03;5030125;28;20037;-54
2022/10/04 13:42:27;;;;;;;3.53;0.40;;;;;;;26.54;41.23;101786.69;5030106;28;20045;-56
2022/10/04 13:45:05;;;;;;;1.02;0.30;;;;;;;26.57;40.91;101783.19;5027610;28;20030;-51
2022/10/04 13:47:52;;;;;;;0.90;0.43;;;;;;;26.50;41.04;101783.09;5030774;28;20036;-51
2022/10/04 13:50:43;;;;;;;2.50;0.40;;;;;;;26.57;40.89;101783.19;5028878;28;20029;-51
2022/10/04 13:56:45;;;;;;;0.57;0.22;;;;;;;26.60;41.14;101791.16;5025387;28;20060;-51
2022/10/04 13:59:43;;;;;;;1.65;0.25;;;;;;;26.60;40.97;101792.03;5027870;28;20040;-52
2022/10/04 14:02:49;;;;;;;0.77;0.30;;;;;;;26.60;41.14;101797.28;5026994;28;20079;-48
2022/10/04 14:05:32;;;;;;;2.10;0.30;;;;;;;26.58;41.07;101799.00;5030761;28;20417;-53
2022/10/04 14:08:32;;;;;;;0.50;0.20;;;;;;;26.59;40.93;101795.50;5028717;28;20560;-53
2022/10/04 14:11:10;;;;;;;0.65;0.30;;;;;;;26.62;41.01;101792.06;5030716;28;20395;-50
2022/10/04 14:13:48;;;;;;;1.05;0.30;;;;;;;26.60;41.11;101785.88;5033962;28;20026;-52
2022/10/04 14:16:44;;;;;;;2.03;0.43;;;;;;;26.54;41.25;101784.06;5022986;28;20463;-53
2022/10/04 14:19:56;;;;;;;0.88;0.28;;;;;;;26.58;40.83;101788.47;5015094;28;20038;-55
2022/10/04 14:22:25;;;;;;;0.63;0.32;;;;;;;26.60;41.16;101789.38;5031138;28;20045;-51
2022/10/04 14:25:08;;;;;;;0.70;0.25;;;;;;;26.58;40.96;101787.59;5031093;28;20052;-50
2022/10/04 14:27:48;;;;;;;1.13;0.20;;;;;;;26.50;41.05;101783.09;5025892;28;20028;-49
2022/10/04 14:30:30;;;;;;;0.75;0.30;;;;;;;26.50;41.22;101780.47;5014562;28;20034;-48
2022/10/04 14:33:02;;;;;;;1.98;0.30;;;;;;;26.54;41.29;101789.31;5015842;28;20531;-50
2022/10/04 14:35:31;;;;;;;0.88;0.38;;;;;;;26.50;41.26;101785.72;5015277;28;20033;-48
2022/10/04 14:38:22;;;;;;;1.83;0.40;;;;;;;26.50;41.21;101783.09;5014629;28;20026;-50
2022/10/04 14:41:21;;;;;;;0.47;0.25;;;;;;;26.51;41.19;101781.38;5007080;28;20042;-53
2022/10/04 14:44:13;;;;;;;1.08;0.40;;;;;;;26.59;41.08;101778.84;5012028;28;20042;-56
2022/10/04 14:46:45;;;;;;;2.95;0.50;;;;;;;26.66;40.92;101768.44;5014072;28;20045;-52
2022/10/04 14:49:38;;;;;;;1.23;0.38;;;;;;;26.63;40.86;101764.88;5015343;28;20069;-54
2022/10/04 14:52:15;;;;;;;1.20;0.35;;;;;;;26.63;40.92;101770.16;5015499;28;20080;-49
2022/10/04 14:54:52;;;;;;;2.55;0.30;;;;;;;26.51;41.22;101765.59;5015053;28;20030;-49
2022/10/04 14:57:58;;;;;;;2.83;0.30;;;;;;;26.53;41.21;101775.25;5015244;28;20026;-54
2022/10/04 15:00:53;;;;;;;1.50;0.50;;;;;;;26.47;41.07;101772.56;5013667;28;20073;-49
2022/10/04 15:03:59;;;;;;;0.73;0.20;;;;;;;26.58;40.87;101763.94;5011854;28;20464;-47
2022/10/04 15:06:39;;;;;;;3.58;0.30;;;;;;;26.60;40.81;101768.34;5012961;28;20030;-52
2022/10/04 15:09:10;;;;;;;0.65;0.30;;;;;;;26.63;40.96;101759.63;5014946;28;20030;-52
2022/10/04 15:12:00;;;;;;;1.70;0.40;;;;;;;26.60;41.01;101764.84;5015111;28;20069;-51
2022/10/04 15:14:34;;;;;;;1.80;0.35;;;;;;;26.60;40.91;101764.84;5014548;28;20026;-50
2022/10/04 15:17:05;;;;;;;0.80;0.32;;;;;;;26.61;41.00;101756.94;5014680;28;20033;-51
2022/10/04 15:19:47;;;;;;;0.45;0.20;;;;;;;26.63;40.99;101757.84;5015024;28;20108;-51
2022/10/04 15:22:21;;;;;;;2.28;0.65;;;;;;;26.63;40.91;101754.34;5013517;28;20038;-48
2022/10/04 15:24:49;;;;;;;;;;;;;;;26.65;40.90;101755.25;5015097;28;20029;-48
2022/10/04 15:27:17;;;;;;;0.30;0.22;;;;;;;26.73;40.86;101752.72;5014506;28;19917;-51
2022/10/04 15:29:57;;;;;;;1.80;0.32;;;;;;;26.66;40.87;101744.75;5014850;28;20487;-52
2022/10/04 15:32:41;;;;;;;0.85;0.25;;;;;;;26.68;40.66;101752.66;5014753;28;20033;-51
2022/10/04 15:35:29;;;;;;;0.55;0.28;;;;;;;26.63;40.94;101743.84;5013335;28;20030;-51
2022/10/04 15:38:07;;;;;;;5.47;0.55;;;;;;;26.66;40.85;101736.84;5013325;28;20037;-49
2022/10/04 15:41:01;;;;;;;0.70;0.20;;;;;;;26.63;40.88;101739.44;5014226;28;20484;-49
2022/10/04 15:43:48;;;;;;;0.80;0.20;;;;;;;26.67;40.73;101729.84;5013395;28;20459;-48
2022/10/04 15:46:38;;;;;;;0.52;0.30;;;;;;;26.69;40.57;101723.75;5010687;28;20052;-51
2022/10/04 15:49:25;;;;;;;1.55;0.30;;;;;;;26.63;40.86;101722.78;5014137;28;20037;-49
2022/10/04 15:52:13;;;;;;;2.03;0.47;;;;;;;26.64;41.09;101719.28;5007117;28;20209;-49
2022/10/04 15:54:42;;;;;;;1.67;0.40;;;;;;;26.49;41.02;101699.75;5010435;28;20038;-50
2022/10/04 15:57:24;;;;;;;2.65;0.45;;;;;;;26.49;41.28;101718.19;5012676;28;20025;-52
2022/10/04 15:59:54;;;;;;;3.33;0.30;;;;;;;26.51;41.40;101723.47;5013985;28;20112;-50
2022/10/04 16:02:52;;;;;;;4.40;1.13;;;;;;;26.48;41.28;101716.41;5012804;28;20107;-52
2022/10/04 16:05:32;;;;;;;2.60;0.60;;;;;;;26.42;41.59;101716.34;5010335;28;20038;-52
2022/10/04 16:08:24;;;;;;;2.25;0.40;;;;;;;26.39;41.69;101716.28;5013896;28;20113;-50
2022/10/04 16:11:11;;;;;;;1.85;0.50;;;;;;;26.41;41.66;101718.94;5013877;28;20026;-52
2022/10/04 16:13:45;;;;;;;1.27;0.35;;;;;;;26.34;41.53;101702.19;5010281;28;20041;-50
2022/10/04 16:16:18;;;;;;;2.33;0.40;;;;;;;26.42;41.77;101712.81;5012581;28;20022;-52
2022/10/04 16:18:58;;;;;;;16.52;6.45;;;;;;;26.39;41.48;101708.41;5013675;28;20034;-51
2022/10/04 16:21:40;;;;;;;15.02;7.32;;;;;;;26.44;41.63;101705.84;5012606;28;20029;-50
2022/10/04 16:24:28;;;;;;;15.55;6.43;;;;;;;26.46;41.49;101707.63;5011535;28;20026;-51
2022/10/04 16:26:56;;;;;;;16.27;7.25;;;;;;;26.46;41.40;101709.38;5013307;28;20033;-52
2022/10/04 16:29:35;;;;;;;15.05;7.00;;;;;;;26.36;41.42;101711.88;5013610;28;20034;-52
2022/10/04 16:32:24;;;;;;;21.27;8.18;;;;;;;26.32;41.74;101699.53;5013349;28;20041;-50
2022/10/04 16:34:52;;;;;;;14.43;7.32;;;;;;;26.40;41.50;101704.91;4996379;28;20061;-49
2022/10/04 16:37:40;;;;;;;15.52;6.93;;;;;;;26.40;41.57;101699.66;5013258;28;20026;-50
2022/10/04 16:40:30;;;;;;;17.42;7.63;;;;;;;26.36;41.70;101698.72;5013135;28;20472;-48
2022/10/04 16:43:03;;;;;;;20.50;9.10;;;;;;;26.36;41.73;101703.09;5006623;28;20046;-54
2022/10/04 16:45:59;;;;;;;24.55;7.95;;;;;;;26.41;41.42;101696.16;5013385;28;20026;-50
2022/10/04 16:48:47;;;;;;;23.27;10.02;;;;;;;26.43;41.31;101698.78;5012792;28;20480;-49
2022/10/04 16:51:41;;;;;;;19.08;8.65;;;;;;;26.44;41.42;101696.22;5009633;28;20100;-51
2022/10/04 16:54:34;;;;;;;18.67;7.75;;;;;;;26.43;41.41;101694.44;5009286;28;20400;-50
2022/10/04 16:57:03;;;;;;;16.05;7.07;;;;;;;26.46;41.29;101702.38;5009940;28;20062;-51
2022/10/04 16:59:40;;;;;;;22.02;9.27;;;;;;;26.42;41.13;101703.19;5013128;28;20030;-50
2022/10/04 17:02:31;;;;;;;19.27;7.95;;;;;;;26.37;41.56;101696.97;5012960;28;20036;-52
2022/10/04 17:05:21;;;;;;;15.23;7.03;;;;;;;26.37;41.46;101711.03;5009658;28;20034;-51
2022/10/04 17:08:11;;;;;;;15.35;6.35;;;;;;;26.42;41.42;101712.81;5005253;28;20038;-50
2022/10/04 17:11:07;;;;;;;17.88;7.80;;;;;;;26.42;41.46;101707.53;5010181;28;20091;-50
2022/10/04 17:13:47;;;;;;;15.70;6.82;;;;;;;26.40;41.23;101710.16;5007086;28;20030;-53
2022/10/04 17:16:19;;;;;;;17.65;6.53;;;;;;;26.44;41.37;101705.84;5012558;28;20113;-50
2022/10/04 17:19:10;;;;;;;14.15;6.10;;;;;;;26.43;41.29;101710.22;5012471;28;20033;-51
2022/10/04 17:21:48;;;;;;;16.88;6.65;;;;;;;26.42;41.33;101703.19;5012143;28;20038;-49
2022/10/04 17:24:35;;;;;;;20.00;6.90;;;;;;;26.44;41.34;101704.09;5012659;28;20116;-51
2022/10/04 17:27:26;;;;;;;14.40;5.85;;;;;;;26.37;41.15;101702.22;5008493;28;20040;-51
2022/10/04 17:29:54;;;;;;;11.18;5.35;;;;;;;26.43;41.00;101698.78;5012705;28;20033;-50
2022/10/04 17:32:24;;;;;;;13.73;5.47;;;;;;;26.42;41.26;101697.94;5012638;28;20026;-48
2022/10/04 17:34:58;;;;;;;10.70;4.85;;;;;;;26.32;41.45;101696.91;5012572;28;20034;-48
2022/10/04 17:37:45;;;;;;;14.38;5.38;;;;;;;26.29;41.60;101696.00;5012225;28;20061;-53
2022/10/04 17:40:13;;;;;;;13.90;5.13;;;;;;;26.32;41.38;101694.28;5012372;28;20113;-50
2022/10/04 17:43:05;;;;;;;12.43;4.78;;;;;;;26.33;41.13;101701.31;5012478;28;20041;-50
2022/10/04 17:45:47;;;;;;;11.63;4.40;;;;;;;26.34;41.18;101684.66;5012081;28;20030;-51
2022/10/04 17:57:03;;;;;;;9.57;3.40;;;;;;;26.46;41.11;101705.00;5011805;28;20042;-51
2022/10/04 17:59:40;;;;;;;8.80;3.42;;;;;;;26.42;40.68;101705.81;5012034;28;20026;-48
2022/10/04 18:02:20;;;;;;;8.07;3.17;;;;;;;26.41;41.10;101700.50;5011145;28;20030;-52
2022/10/04 18:05:00;;;;;;;7.63;3.28;;;;;;;26.47;40.90;101711.13;5010841;28;20073;-50
2022/10/04 18:07:39;;;;;;;7.97;3.35;;;;;;;26.44;41.01;101716.34;5011958;28;20483;-51
2022/10/04 18:10:26;;;;;;;7.07;2.60;;;;;;;26.37;41.38;101708.41;5011001;28;20030;-47
2022/10/04 18:13:15;;;;;;;8.10;2.35;;;;;;;26.41;41.35;101713.66;5008682;28;20495;-51
2022/10/04 18:15:53;;;;;;;5.18;2.25;;;;;;;26.39;41.16;101708.41;5008968;28;20121;-52
2022/10/04 18:18:23;;;;;;;38.65;22.90;;;;;;;26.26;41.76;101695.94;5010841;28;20112;-47
2022/10/04 18:20:54;;;;;;;25.20;14.40;;;;;;;26.30;41.67;101708.28;5012213;28;20026;-49
2022/10/04 18:23:27;;;;;;;57.90;40.38;;;;;;;26.33;41.66;101703.03;5012093;28;20041;-50
2022/10/04 18:26:01;;;;;;;61.10;41.33;;;;;;;26.34;41.39;101700.44;5010907;28;20030;-49
2022/10/04 18:28:33;;;;;;;50.42;36.35;;;;;;;26.35;41.70;101701.31;5011758;28;20022;-50
2022/10/04 18:31:28;;;;;;;59.25;41.05;;;;;;;26.26;41.73;101702.06;5011910;28;20033;-50
2022/10/04 18:33:57;;;;;;;53.67;40.30;;;;;;;26.31;41.72;101689.88;5011599;28;20049;-49
2022/10/04 18:36:31;;;;;;;56.72;40.53;;;;;;;26.29;41.70;101682.84;5011698;28;20038;-47
2022/10/04 18:39:19;;;;;;;53.72;38.67;;;;;;;26.30;41.81;101693.38;5010769;28;20041;-50
2022/10/04 18:42:12;;;;;;;57.83;38.83;;;;;;;26.34;41.59;101696.91;5011696;28;20495;-52
2022/10/04 18:45:00;;;;;;;58.08;39.80;;;;;;;26.37;41.66;101691.72;5009060;28;20096;-51
2022/10/04 18:47:33;;;;;;;59.83;42.13;;;;;;;26.39;41.51;101688.22;5010583;28;20033;-50
2022/10/04 18:50:08;;;;;;;61.55;43.38;;;;;;;26.30;41.95;101671.47;5015430;28;20018;-50
2022/10/04 18:52:54;;;;;;;;;;;;;;;26.42;41.88;101678.59;4998789;28;20056;-48
2022/10/04 18:55:48;;;;;;;61.67;41.60;;;;;;;26.45;41.67;101683.91;5011917;28;19914;-49
2022/10/04 19:02:06;;;;;;;54.83;36.13;;;;;;;26.39;42.14;101676.84;5014038;28;20111;-51